Time;durP1;ratioP1;P1;durP2;ratioP2;P2;SDS_P1;SDS_P2;PMS_P1;PMS_P2;Temp;Humidity;BMP_temperature;BMP_pressure;BME280_temperature;BME280_humidity;BME280_pressure;Samples;Min_cycle;Max_cycle;Signal;HPM_P1;HPM_P2
2023/12/08 00:00:07;;;;;;;43.97;25.42;;;2.70;1.00;;;;;;5145081;27;20258;-81
2023/12/08 00:02:34;;;;;;;43.50;25.30;;;2.70;1.00;;;;;;5148121;27;20233;-81
2023/12/08 00:05:01;;;;;;;43.78;24.73;;;2.60;1.00;;;;;;5132250;27;20255;-81
2023/12/08 00:07:28;;;;;;;40.90;25.00;;;2.60;1.00;;;;;;5143718;27;20230;-81
2023/12/08 00:09:56;;;;;;;45.15;23.58;;;2.60;1.00;;;;;;5148796;27;20237;-82
2023/12/08 00:12:23;;;;;;;49.30;26.23;;;2.60;1.00;;;;;;5138611;27;20237;-81
2023/12/08 00:14:50;;;;;;;42.17;25.15;;;2.50;1.00;;;;;;5125178;27;20238;-82
2023/12/08 00:17:17;;;;;;;42.80;24.80;;;2.50;1.00;;;;;;5135658;27;21690;-82
2023/12/08 00:19:47;;;;;;;48.08;25.30;;;2.50;1.00;;;;;;5124974;27;20236;-81
2023/12/08 00:22:14;;;;;;;42.72;24.48;;;2.60;1.00;;;;;;5114721;27;20227;-82
2023/12/08 00:24:42;;;;;;;43.50;26.27;;;2.70;1.00;;;;;;5145652;27;20240;-79
2023/12/08 00:27:10;;;;;;;46.08;24.98;;;2.60;1.00;;;;;;5144706;27;20227;-81
2023/12/08 00:29:38;;;;;;;39.90;23.92;;;2.60;1.00;;;;;;5144924;27;20322;-81
2023/12/08 00:32:05;;;;;;;42.72;23.83;;;2.70;1.00;;;;;;5131826;27;20240;-81
2023/12/08 00:34:34;;;;;;;47.70;25.98;;;2.60;1.00;;;;;;5118203;27;20235;-81
2023/12/08 00:37:01;;;;;;;42.17;25.05;;;2.60;1.00;;;;;;5136495;27;20347;-81
2023/12/08 00:39:29;;;;;;;38.50;23.80;;;2.50;1.00;;;;;;5142044;27;20325;-81
2023/12/08 00:41:56;;;;;;;46.42;23.95;;;2.50;1.00;;;;;;5146211;27;20333;-81
2023/12/08 00:44:24;;;;;;;40.05;24.25;;;2.50;1.00;;;;;;5141448;27;20249;-81
2023/12/08 00:46:51;;;;;;;46.00;27.27;;;2.50;1.00;;;;;;5146986;27;20301;-81
2023/12/08 00:49:18;;;;;;;42.95;25.45;;;2.60;1.00;;;;;;5147288;27;20614;-82
2023/12/08 00:51:46;;;;;;;44.35;24.35;;;2.60;1.00;;;;;;5129817;27;20286;-77
2023/12/08 00:54:15;;;;;;;45.55;25.45;;;2.60;1.00;;;;;;5141681;27;21161;-81
2023/12/08 00:56:42;;;;;;;44.13;24.92;;;2.60;1.00;;;;;;5149400;27;20257;-82
2023/12/08 00:59:09;;;;;;;39.92;23.27;;;2.50;1.00;;;;;;5143875;27;20239;-80
2023/12/08 01:01:37;;;;;;;41.97;24.15;;;2.60;1.00;;;;;;5148565;27;20322;-83
2023/12/08 01:04:04;;;;;;;42.72;24.00;;;2.70;1.00;;;;;;5147900;27;20293;-79
2023/12/08 01:06:31;;;;;;;41.80;25.10;;;2.50;1.00;;;;;;5147661;27;21244;-81
2023/12/08 01:08:59;;;;;;;44.83;25.70;;;2.50;1.00;;;;;;5138830;27;20242;-81
2023/12/08 01:11:25;;;;;;;40.55;24.75;;;2.50;1.00;;;;;;5145235;27;20361;-80
2023/12/08 01:13:53;;;;;;;41.38;23.63;;;2.50;1.00;;;;;;5139223;27;20962;-81
2023/12/08 01:16:20;;;;;;;40.85;24.55;;;2.60;1.00;;;;;;5146172;27;21124;-81
2023/12/08 01:18:48;;;;;;;41.00;24.20;;;2.60;1.00;;;;;;5139935;27;20320;-77
2023/12/08 01:21:15;;;;;;;38.83;22.73;;;2.50;1.00;;;;;;5149663;27;20233;-80
2023/12/08 01:23:42;;;;;;;40.15;23.85;;;2.50;1.00;;;;;;5153484;27;20242;-81
2023/12/08 01:26:09;;;;;;;46.08;25.20;;;2.50;1.00;;;;;;5146954;27;21104;-81
2023/12/08 01:28:36;;;;;;;40.80;23.63;;;2.50;1.00;;;;;;5150058;27;20230;-81
2023/12/08 01:31:04;;;;;;;41.05;23.50;;;2.50;1.00;;;;;;5146903;27;20327;-76
2023/12/08 01:33:31;;;;;;;45.50;26.10;;;2.50;1.00;;;;;;5157124;27;20258;-75
2023/12/08 01:35:59;;;;;;;45.15;23.23;;;2.40;1.00;;;;;;5151632;27;20327;-75
2023/12/08 01:38:28;;;;;;;49.90;25.42;;;2.30;1.00;;;;;;5150553;27;20240;-76
2023/12/08 01:40:55;;;;;;;51.67;27.77;;;2.20;1.00;;;;;;5147674;27;21036;-76
2023/12/08 01:43:22;;;;;;;50.80;25.80;;;2.30;1.00;;;;;;5153633;27;21019;-75
2023/12/08 01:45:49;;;;;;;47.17;27.00;;;2.20;1.00;;;;;;5150418;27;20825;-75
2023/12/08 01:48:16;;;;;;;59.38;27.98;;;2.20;1.00;;;;;;5149743;27;20612;-75
2023/12/08 01:50:43;;;;;;;54.25;26.83;;;2.20;1.00;;;;;;5153663;27;20323;-77
2023/12/08 01:53:12;;;;;;;48.55;26.40;;;2.20;1.00;;;;;;5140387;27;20303;-74
2023/12/08 01:55:40;;;;;;;59.72;27.50;;;2.10;1.00;;;;;;5164664;27;20773;-77
2023/12/08 01:58:08;;;;;;;47.42;26.30;;;2.20;1.00;;;;;;5139854;27;20233;-74
2023/12/08 02:00:35;;;;;;;54.13;27.85;;;2.30;1.00;;;;;;5166268;27;20290;-76
2023/12/08 02:03:03;;;;;;;55.03;28.70;;;2.40;1.00;;;;;;5153967;27;20531;-76
2023/12/08 02:05:32;;;;;;;50.03;26.70;;;2.30;1.00;;;;;;5153205;27;20329;-75
2023/12/08 02:08:00;;;;;;;51.40;28.15;;;2.30;1.00;;;;;;5157595;27;20279;-75
2023/12/08 02:10:29;;;;;;;46.15;26.63;;;2.30;1.00;;;;;;5150026;27;20229;-76
2023/12/08 02:12:56;;;;;;;50.55;27.20;;;2.30;1.00;;;;;;5153415;27;20233;-76
2023/12/08 02:15:23;;;;;;;53.28;27.52;;;2.40;1.00;;;;;;5152645;27;20238;-75
2023/12/08 02:17:51;;;;;;;51.70;27.33;;;2.30;1.00;;;;;;5148888;27;20345;-76
2023/12/08 02:20:18;;;;;;;55.33;29.13;;;2.30;1.00;;;;;;5149937;27;20233;-78
2023/12/08 02:22:45;;;;;;;55.08;28.75;;;2.30;1.00;;;;;;5151996;27;20382;-76
2023/12/08 02:25:13;;;;;;;54.00;28.45;;;2.40;1.00;;;;;;5148834;27;20242;-77
2023/12/08 02:27:41;;;;;;;65.30;31.05;;;2.40;1.00;;;;;;5151998;27;20879;-77
2023/12/08 02:30:09;;;;;;;52.45;30.52;;;2.40;1.00;;;;;;5148223;27;20342;-76
2023/12/08 02:32:39;;;;;;;55.80;29.85;;;2.30;1.00;;;;;;5154671;27;20390;-76
2023/12/08 02:35:08;;;;;;;49.75;29.85;;;2.30;1.00;;;;;;5151094;27;20238;-77
2023/12/08 02:37:38;;;;;;;45.03;25.63;;;2.40;1.00;;;;;;5156025;27;20317;-76
2023/12/08 02:40:08;;;;;;;49.03;29.02;;;2.40;1.00;;;;;;5150435;27;20276;-79
2023/12/08 02:42:37;;;;;;;46.53;27.42;;;2.40;1.00;;;;;;5151727;27;20339;-77
2023/12/08 02:45:04;;;;;;;53.13;28.88;;;2.30;1.00;;;;;;5147431;27;20241;-77
2023/12/08 02:47:32;;;;;;;49.53;28.73;;;2.40;1.00;;;;;;5149359;27;20325;-76
2023/12/08 02:50:00;;;;;;;46.95;26.00;;;2.50;1.00;;;;;;5148511;27;20237;-77
2023/12/08 02:52:27;;;;;;;49.25;29.85;;;2.60;1.00;;;;;;5151506;27;20335;-76
2023/12/08 02:54:57;;;;;;;42.50;26.60;;;2.50;1.00;;;;;;5150738;27;20233;-77
2023/12/08 02:57:24;;;;;;;46.28;26.35;;;2.50;1.00;;;;;;5153664;27;20233;-76
2023/12/08 02:59:52;;;;;;;48.22;26.48;;;2.40;1.00;;;;;;5152124;27;20726;-77
2023/12/08 03:02:19;;;;;;;50.13;28.85;;;2.40;1.00;;;;;;5148234;27;20234;-77
2023/12/08 03:04:46;;;;;;;49.03;27.63;;;2.50;1.00;;;;;;5152482;27;21074;-77
2023/12/08 03:07:13;;;;;;;49.80;28.15;;;2.50;1.00;;;;;;5151886;27;20241;-75
2023/12/08 03:09:41;;;;;;;48.33;28.35;;;2.40;1.00;;;;;;5152603;27;20264;-74
2023/12/08 03:12:08;;;;;;;49.85;28.67;;;2.50;1.00;;;;;;5149340;27;20234;-76
2023/12/08 03:14:35;;;;;;;51.97;27.10;;;2.50;1.00;;;;;;5149561;27;20241;-75
2023/12/08 03:17:04;;;;;;;49.97;28.05;;;2.40;1.00;;;;;;5149474;27;20237;-75
2023/12/08 03:19:31;;;;;;;41.67;26.80;;;2.40;1.00;;;;;;5150756;27;20229;-74
2023/12/08 03:21:58;;;;;;;49.58;27.20;;;2.50;1.00;;;;;;5151705;27;20238;-75
2023/12/08 03:24:25;;;;;;;44.10;28.35;;;2.50;1.00;;;;;;5150846;27;20401;-75
2023/12/08 03:26:52;;;;;;;56.15;27.73;;;2.50;1.00;;;;;;5151530;27;20291;-75
2023/12/08 03:29:19;;;;;;;52.20;29.15;;;2.50;1.00;;;;;;5149017;27;20805;-76
2023/12/08 03:31:46;;;;;;;48.38;27.50;;;2.50;1.00;;;;;;5149827;27;20265;-76
2023/12/08 03:34:15;;;;;;;51.30;28.33;;;2.50;1.00;;;;;;5141753;27;20675;-75
2023/12/08 03:36:42;;;;;;;47.92;26.60;;;2.50;1.00;;;;;;5151240;27;20238;-77
2023/12/08 03:39:09;;;;;;;49.42;26.35;;;2.50;1.00;;;;;;5150134;27;20238;-75
2023/12/08 03:41:36;;;;;;;54.20;28.65;;;2.60;1.00;;;;;;5155542;27;20234;-76
2023/12/08 03:44:03;;;;;;;50.45;29.83;;;2.60;1.00;;;;;;5150459;27;20321;-76
2023/12/08 03:46:30;;;;;;;49.58;28.98;;;2.50;1.00;;;;;;5146007;27;20328;-75
2023/12/08 03:48:57;;;;;;;52.40;27.10;;;2.50;1.00;;;;;;5154474;27;20238;-75
2023/12/08 03:51:26;;;;;;;42.30;26.27;;;2.50;1.00;;;;;;5138461;27;20234;-76
2023/12/08 03:53:53;;;;;;;54.90;28.27;;;2.60;1.00;;;;;;5149750;27;20229;-75
2023/12/08 03:56:20;;;;;;;52.70;28.85;;;2.60;1.00;;;;;;5148705;27;20279;-75
2023/12/08 03:58:47;;;;;;;51.63;28.83;;;2.50;1.00;;;;;;5146866;27;21097;-76
2023/12/08 04:01:17;;;;;;;56.90;29.85;;;2.50;1.00;;;;;;5145816;27;21285;-77
2023/12/08 04:03:44;;;;;;;50.40;26.42;;;2.60;1.00;;;;;;5154324;27;20324;-75
2023/12/08 04:06:11;;;;;;;56.17;30.23;;;2.60;1.00;;;;;;5147975;27;20234;-75
2023/12/08 04:08:39;;;;;;;49.47;28.85;;;2.50;1.00;;;;;;5149287;27;20234;-75
2023/12/08 04:11:08;;;;;;;53.42;31.65;;;2.50;1.00;;;;;;5142558;27;20241;-74
2023/12/08 04:13:34;;;;;;;50.35;29.55;;;2.50;1.00;;;;;;5153495;27;20270;-75
2023/12/08 04:16:02;;;;;;;54.33;31.40;;;2.50;1.00;;;;;;5148314;27;22587;-77
2023/12/08 04:18:28;;;;;;;53.50;30.20;;;2.50;1.00;;;;;;5150481;27;20225;-76
2023/12/08 04:20:56;;;;;;;49.75;30.73;;;2.50;1.00;;;;;;5152525;27;20238;-74
2023/12/08 04:23:23;;;;;;;52.10;30.20;;;2.50;1.00;;;;;;5147178;27;20235;-76
2023/12/08 04:25:52;;;;;;;53.65;29.58;;;2.60;1.00;;;;;;5148699;27;20233;-75
2023/12/08 04:28:19;;;;;;;56.38;31.92;;;2.50;1.00;;;;;;5143313;27;20242;-75
2023/12/08 04:30:46;;;;;;;49.45;30.55;;;2.50;1.00;;;;;;5150879;27;20240;-76
2023/12/08 04:33:13;;;;;;;57.78;30.75;;;2.50;1.00;;;;;;5149359;27;20249;-75
2023/12/08 04:35:42;;;;;;;48.65;31.05;;;2.50;1.00;;;;;;5154168;27;21072;-76
2023/12/08 04:38:09;;;;;;;49.10;30.70;;;2.50;1.00;;;;;;5149536;27;20595;-76
2023/12/08 04:40:36;;;;;;;51.92;28.90;;;2.50;1.00;;;;;;5147069;27;20325;-76
2023/12/08 04:43:06;;;;;;;58.53;31.38;;;2.40;1.00;;;;;;5144778;27;20812;-79
2023/12/08 04:45:33;;;;;;;46.78;29.20;;;2.40;1.00;;;;;;5151589;27;20337;-75
2023/12/08 04:48:00;;;;;;;52.33;30.60;;;2.50;1.00;;;;;;5136155;27;20283;-75
2023/12/08 04:50:27;;;;;;;51.35;28.92;;;2.50;1.00;;;;;;5152419;27;20295;-78
2023/12/08 04:52:54;;;;;;;48.35;28.50;;;2.50;1.00;;;;;;5154756;27;20630;-76
2023/12/08 04:55:21;;;;;;;48.80;29.33;;;2.50;1.00;;;;;;5155685;27;20313;-76
2023/12/08 04:57:48;;;;;;;42.28;28.63;;;2.50;1.00;;;;;;5153782;27;20237;-75
2023/12/08 05:00:18;;;;;;;50.50;30.17;;;2.50;1.00;;;;;;5146111;27;22552;-75
2023/12/08 05:02:48;;;;;;;47.47;30.70;;;2.50;1.00;;;;;;5150288;27;20734;-77
2023/12/08 05:05:16;;;;;;;52.15;29.92;;;2.50;1.00;;;;;;5149421;27;20230;-75
2023/12/08 05:07:42;;;;;;;47.95;29.98;;;2.50;1.00;;;;;;5157893;27;20318;-75
2023/12/08 05:10:10;;;;;;;47.55;29.48;;;2.50;1.00;;;;;;5142353;27;20321;-75
2023/12/08 05:12:37;;;;;;;48.40;31.70;;;2.50;1.00;;;;;;5147179;27;20321;-75
2023/12/08 05:15:05;;;;;;;47.60;29.15;;;2.50;1.00;;;;;;5152741;27;21021;-81
2023/12/08 05:17:33;;;;;;;47.08;29.15;;;2.50;1.00;;;;;;5150919;27;21078;-82
2023/12/08 05:20:03;;;;;;;44.90;29.73;;;2.40;1.00;;;;;;5148205;27;20991;-81
2023/12/08 05:22:30;;;;;;;45.42;27.90;;;2.50;1.00;;;;;;5149841;27;20265;-76
2023/12/08 05:24:57;;;;;;;52.28;31.13;;;2.50;1.00;;;;;;5153792;27;20241;-81
2023/12/08 05:27:24;;;;;;;47.13;28.52;;;2.60;1.00;;;;;;5147395;27;20248;-82
2023/12/08 05:29:52;;;;;;;49.55;31.98;;;2.50;1.00;;;;;;5141508;27;20297;-80
2023/12/08 05:32:19;;;;;;;44.58;30.10;;;2.50;1.00;;;;;;5156456;27;20237;-82
2023/12/08 05:34:47;;;;;;;46.22;30.55;;;2.60;1.00;;;;;;5152900;27;20234;-80
2023/12/08 05:37:16;;;;;;;41.90;28.08;;;2.60;1.00;;;;;;5152878;27;20246;-82
2023/12/08 05:39:44;;;;;;;46.05;31.90;;;2.60;1.00;;;;;;5144740;27;20247;-77
2023/12/08 05:42:11;;;;;;;52.88;31.13;;;2.60;1.00;;;;;;5152610;27;20237;-84
2023/12/08 05:44:38;;;;;;;42.20;28.20;;;2.60;1.00;;;;;;5155072;27;20233;-82
2023/12/08 05:47:05;;;;;;;43.60;29.10;;;2.60;1.00;;;;;;5153027;27;20249;-82
2023/12/08 05:49:32;;;;;;;45.03;29.88;;;2.60;1.00;;;;;;5149857;27;20268;-83
2023/12/08 05:52:00;;;;;;;40.97;27.30;;;2.60;1.00;;;;;;5139312;27;20248;-77
2023/12/08 05:54:27;;;;;;;57.40;35.88;;;2.60;1.00;;;;;;5154071;27;20232;-81
2023/12/08 05:56:54;;;;;;;40.97;28.52;;;2.60;1.00;;;;;;5133308;27;20224;-78
2023/12/08 05:59:22;;;;;;;45.75;29.05;;;2.60;1.00;;;;;;5156547;27;20294;-83
2023/12/08 06:01:49;;;;;;;41.60;27.02;;;2.60;1.00;;;;;;5153682;27;20257;-81
2023/12/08 06:04:16;;;;;;;43.30;28.38;;;2.60;1.00;;;;;;5147272;27;20296;-83
2023/12/08 06:06:43;;;;;;;45.10;29.92;;;2.70;1.00;;;;;;5141678;27;20245;-80
2023/12/08 06:09:13;;;;;;;44.08;28.23;;;2.70;1.00;;;;;;5144771;27;20302;-80
2023/12/08 06:11:40;;;;;;;41.35;27.38;;;2.70;1.00;;;;;;5149842;27;20238;-79
2023/12/08 06:14:07;;;;;;;43.75;29.13;;;2.70;1.00;;;;;;5149825;27;20302;-83
2023/12/08 06:16:34;;;;;;;40.63;28.90;;;2.70;1.00;;;;;;5158239;27;20238;-84
2023/12/08 06:19:03;;;;;;;40.13;27.85;;;2.70;1.00;;;;;;5152651;27;20230;-83
2023/12/08 06:21:31;;;;;;;42.60;26.75;;;2.60;1.00;;;;;;5148218;27;21046;-86
2023/12/08 06:23:58;;;;;;;36.22;24.85;;;2.70;1.00;;;;;;5160447;27;20405;-84
2023/12/08 06:26:27;;;;;;;43.13;29.63;;;2.60;1.00;;;;;;5160993;27;20313;-86
2023/12/08 06:28:54;;;;;;;41.67;26.52;;;2.60;1.00;;;;;;5155931;27;20237;-83
2023/12/08 06:31:21;;;;;;;43.80;26.13;;;2.50;1.00;;;;;;5157566;27;20314;-85
2023/12/08 06:33:48;;;;;;;43.22;27.27;;;2.50;1.00;;;;;;5154433;27;20237;-86
2023/12/08 06:36:19;;;;;;;49.50;35.80;;;2.50;1.00;;;;;;5159079;27;20232;-79
2023/12/08 06:38:46;;;;;;;37.15;24.70;;;2.40;1.00;;;;;;5156449;27;20291;-84
2023/12/08 06:41:13;;;;;;;38.78;27.45;;;2.40;1.00;;;;;;5163992;27;20234;-85
2023/12/08 06:43:43;;;;;;;38.85;26.73;;;2.30;1.00;;;;;;5155963;27;20259;-82
2023/12/08 06:46:10;;;;;;;39.72;26.92;;;2.30;1.00;;;;;;5150146;27;20348;-84
2023/12/08 06:48:37;;;;;;;38.38;26.65;;;2.20;1.00;;;;;;5155280;27;20276;-81
2023/12/08 06:51:04;;;;;;;37.83;25.17;;;2.20;1.00;;;;;;5155503;27;20253;-85
2023/12/08 06:53:36;;;;;;;40.92;27.25;;;2.20;1.00;;;;;;5153453;27;20225;-86
2023/12/08 06:56:06;;;;;;;44.22;27.35;;;2.10;1.00;;;;;;5150859;27;20908;-84
2023/12/08 06:58:33;;;;;;;36.45;25.35;;;2.10;1.00;;;;;;5156848;27;20304;-80
2023/12/08 07:01:06;;;;;;;40.20;27.08;;;2.10;1.00;;;;;;5150097;27;20342;-86
2023/12/08 07:03:35;;;;;;;39.15;24.98;;;2.10;1.00;;;;;;5149133;27;20233;-81
2023/12/08 07:06:05;;;;;;;36.15;25.50;;;2.10;1.00;;;;;;5146787;27;20230;-79
2023/12/08 07:08:31;;;;;;;39.70;26.40;;;2.10;1.00;;;;;;5153550;27;20234;-79
2023/12/08 07:11:00;;;;;;;40.55;25.17;;;2.20;1.00;;;;;;5155044;27;20316;-81
2023/12/08 07:13:29;;;;;;;45.42;27.25;;;2.10;1.00;;;;;;5143321;27;20247;-80
2023/12/08 07:15:56;;;;;;;40.97;28.42;;;2.10;1.00;;;;;;5168924;27;20243;-81
2023/12/08 07:18:26;;;;;;;36.75;25.40;;;2.10;1.00;;;;;;5157514;27;20237;-81
2023/12/08 07:20:53;;;;;;;39.63;28.58;;;2.10;1.00;;;;;;5156783;27;20234;-80
2023/12/08 07:23:23;;;;;;;37.22;25.45;;;2.00;1.00;;;;;;5149799;27;20988;-81
2023/12/08 07:25:50;;;;;;;43.70;26.92;;;1.90;1.00;;;;;;5158308;27;20280;-82
2023/12/08 07:28:17;;;;;;;40.53;27.88;;;1.90;1.00;;;;;;5141481;27;20966;-79
2023/12/08 07:30:44;;;;;;;39.80;27.10;;;1.90;1.00;;;;;;5139461;27;20245;-79
2023/12/08 07:33:11;;;;;;;41.15;28.35;;;2.00;1.00;;;;;;5141866;27;20237;-78
2023/12/08 07:35:40;;;;;;;39.25;27.27;;;2.00;1.00;;;;;;5151999;27;20776;-81
2023/12/08 07:38:07;;;;;;;44.53;27.25;;;1.90;1.00;;;;;;5145955;27;20287;-79
2023/12/08 07:40:34;;;;;;;40.17;27.92;;;1.80;1.00;;;;;;5155643;27;20241;-80
2023/12/08 07:43:01;;;;;;;46.70;29.95;;;1.80;1.00;;;;;;5146260;27;20337;-82
2023/12/08 07:45:28;;;;;;;41.53;29.40;;;1.80;1.00;;;;;;5151011;27;20230;-80
2023/12/08 07:47:55;;;;;;;37.72;25.85;;;1.80;1.00;;;;;;5149770;27;20526;-80
2023/12/08 07:50:22;;;;;;;40.90;27.52;;;1.70;1.00;;;;;;5151737;27;20306;-79
2023/12/08 07:52:51;;;;;;;36.70;26.95;;;1.80;1.00;;;;;;5153718;27;20234;-80
2023/12/08 07:55:21;;;;;;;35.80;27.70;;;1.80;1.00;;;;;;5145052;27;22071;-82
2023/12/08 07:57:50;;;;;;;36.60;26.08;;;1.80;1.00;;;;;;5144537;27;21160;-81
2023/12/08 08:00:17;;;;;;;45.15;28.65;;;1.70;1.00;;;;;;5151687;27;20315;-79
2023/12/08 08:02:44;;;;;;;39.42;27.40;;;1.80;1.00;;;;;;5147730;27;20277;-81
2023/12/08 08:05:11;;;;;;;37.75;24.98;;;1.80;1.00;;;;;;5154099;27;20233;-80
2023/12/08 08:07:38;;;;;;;35.25;25.40;;;1.80;1.00;;;;;;5155933;27;20218;-80
2023/12/08 08:10:07;;;;;;;37.38;25.85;;;1.90;1.00;;;;;;5155630;27;21171;-79
2023/12/08 08:12:34;;;;;;;37.83;25.58;;;1.90;1.00;;;;;;5139671;27;20234;-80
2023/12/08 08:15:02;;;;;;;35.60;25.42;;;1.80;1.00;;;;;;5152166;27;20286;-80
2023/12/08 08:17:29;;;;;;;36.55;25.95;;;1.90;1.00;;;;;;5144716;27;20237;-81
2023/12/08 08:19:56;;;;;;;38.65;25.38;;;2.00;1.00;;;;;;5156477;27;20278;-82
2023/12/08 08:22:23;;;;;;;35.90;25.80;;;2.00;1.00;;;;;;5154483;27;20239;-80
2023/12/08 08:24:50;;;;;;;32.92;24.92;;;2.20;1.00;;;;;;5144100;27;20229;-78
2023/12/08 08:27:19;;;;;;;35.17;25.73;;;2.20;1.00;;;;;;5143630;27;20962;-79
2023/12/08 08:29:47;;;;;;;40.00;27.27;;;2.30;1.00;;;;;;5143617;27;20238;-83
2023/12/08 08:32:17;;;;;;;34.70;25.30;;;2.30;1.00;;;;;;5156915;27;20973;-78
2023/12/08 08:34:44;;;;;;;33.38;24.50;;;2.30;1.00;;;;;;5154496;27;20266;-79
2023/12/08 08:37:11;;;;;;;30.80;23.85;;;2.30;1.00;;;;;;5138835;27;20993;-83
2023/12/08 08:39:39;;;;;;;36.35;25.95;;;2.40;1.00;;;;;;5155988;27;20264;-84
2023/12/08 08:42:07;;;;;;;36.55;25.05;;;2.40;1.00;;;;;;5157051;27;20324;-82
2023/12/08 08:44:37;;;;;;;31.20;24.63;;;2.40;1.00;;;;;;5155684;27;20241;-79
2023/12/08 08:47:07;;;;;;;33.67;23.63;;;2.40;1.00;;;;;;5156709;27;20234;-84
2023/12/08 08:49:36;;;;;;;28.48;22.95;;;2.40;1.00;;;;;;5155642;27;20350;-81
2023/12/08 08:52:04;;;;;;;33.40;24.30;;;2.40;1.00;;;;;;5157213;27;20249;-86
2023/12/08 08:54:31;;;;;;;28.20;21.17;;;2.30;1.00;;;;;;5156654;27;20222;-86
2023/12/08 08:56:59;;;;;;;35.38;23.27;;;2.30;1.00;;;;;;5160599;27;20297;-81
2023/12/08 08:59:26;;;;;;;30.40;22.55;;;2.40;1.00;;;;;;5157507;27;20238;-79
2023/12/08 09:01:57;;;;;;;29.73;22.42;;;2.40;1.00;;;;;;5156530;27;20286;-81
2023/12/08 09:04:24;;;;;;;31.50;22.15;;;2.40;1.00;;;;;;5155438;27;20255;-77
2023/12/08 09:06:52;;;;;;;31.55;21.98;;;2.40;1.00;;;;;;5153469;27;20275;-79
2023/12/08 09:09:20;;;;;;;30.98;22.02;;;2.60;1.00;;;;;;5151287;27;20295;-77
2023/12/08 09:11:47;;;;;;;30.88;23.00;;;2.60;1.00;;;;;;5152239;27;20285;-79
2023/12/08 09:14:16;;;;;;;28.25;20.45;;;2.60;1.00;;;;;;5145923;27;20237;-78
2023/12/08 09:16:46;;;;;;;30.55;21.67;;;2.50;1.00;;;;;;5152464;27;21083;-78
2023/12/08 09:19:15;;;;;;;27.70;21.45;;;2.50;1.00;;;;;;5139017;27;20239;-77
2023/12/08 09:21:43;;;;;;;31.65;21.70;;;2.60;1.00;;;;;;5151134;27;20797;-79
2023/12/08 09:24:10;;;;;;;30.05;21.85;;;2.70;1.00;;;;;;5142671;27;20697;-80
2023/12/08 09:26:38;;;;;;;30.13;21.55;;;2.70;1.00;;;;;;5155360;27;20230;-80
2023/12/08 09:29:06;;;;;;;26.55;21.73;;;2.60;1.00;;;;;;5149891;27;20235;-80
2023/12/08 09:31:33;;;;;;;24.75;19.25;;;2.70;1.00;;;;;;5153872;27;20301;-79
2023/12/08 09:34:00;;;;;;;31.02;20.25;;;2.70;1.00;;;;;;5145359;27;20241;-78
2023/12/08 09:36:29;;;;;;;25.23;19.15;;;2.80;1.00;;;;;;5164016;27;20237;-79
2023/12/08 09:38:56;;;;;;;24.58;19.45;;;2.90;1.00;;;;;;5135002;27;20231;-77
2023/12/08 09:41:24;;;;;;;25.48;19.10;;;2.90;1.00;;;;;;5130832;27;20262;-79
2023/12/08 09:44:00;;;;;;;24.10;18.55;;;3.10;1.00;;;;;;5133945;27;20262;-81
2023/12/08 09:46:27;;;;;;;28.65;20.45;;;3.00;1.00;;;;;;5129369;27;20300;-77
2023/12/08 09:48:58;;;;;;;26.20;21.02;;;2.90;1.00;;;;;;5114010;27;20380;-79
2023/12/08 09:51:26;;;;;;;28.50;20.77;;;2.70;1.00;;;;;;5123703;27;20316;-76
2023/12/08 09:53:55;;;;;;;30.55;22.83;;;2.60;1.00;;;;;;5128115;27;20240;-78
2023/12/08 09:56:24;;;;;;;23.55;20.33;;;2.60;1.00;;;;;;5127422;27;21023;-79
2023/12/08 09:58:52;;;;;;;26.90;21.15;;;2.60;1.00;;;;;;5133643;27;20237;-80
2023/12/08 10:01:20;;;;;;;25.10;19.02;;;2.70;1.00;;;;;;5113458;27;22615;-77
2023/12/08 10:03:50;;;;;;;27.80;19.85;;;2.50;1.00;;;;;;5132145;27;20262;-80
2023/12/08 10:06:17;;;;;;;28.75;21.13;;;2.60;1.00;;;;;;5132983;27;20219;-79
2023/12/08 10:08:44;;;;;;;26.02;20.42;;;2.50;1.00;;;;;;5125342;27;21077;-79
2023/12/08 10:11:12;;;;;;;26.42;20.45;;;2.50;1.00;;;;;;5114880;27;20762;-80
2023/12/08 10:13:39;;;;;;;28.60;20.08;;;2.50;1.00;;;;;;5126795;27;20238;-81
2023/12/08 10:16:07;;;;;;;27.10;21.45;;;2.50;1.00;;;;;;5125668;27;20246;-82
2023/12/08 10:18:35;;;;;;;26.60;19.08;;;2.50;1.00;;;;;;5122864;27;20239;-82
2023/12/08 10:21:17;;;;;;;30.77;22.02;;;2.50;1.00;;;;;;5127214;27;20292;-82
2023/12/08 10:23:45;;;;;;;23.80;20.05;;;2.60;1.00;;;;;;5129402;27;20245;-82
2023/12/08 10:26:16;;;;;;;25.58;19.52;;;2.50;1.00;;;;;;5127872;27;20319;-81
2023/12/08 10:28:45;;;;;;;27.52;19.80;;;2.60;1.00;;;;;;5126762;27;20249;-80
2023/12/08 10:31:14;;;;;;;28.73;18.90;;;2.50;1.00;;;;;;5127138;27;20242;-77
2023/12/08 10:33:41;;;;;;;26.63;22.33;;;2.60;1.00;;;;;;5122722;27;20430;-77
2023/12/08 10:36:12;;;;;;;27.20;21.02;;;2.60;1.00;;;;;;5123618;27;20248;-79
2023/12/08 10:38:40;;;;;;;25.40;19.90;;;2.70;1.00;;;;;;5147278;27;20226;-76
2023/12/08 10:41:11;;;;;;;24.08;19.38;;;2.70;1.00;;;;;;5147410;27;20997;-78
2023/12/08 10:43:40;;;;;;;25.67;19.25;;;2.60;1.00;;;;;;5144799;27;20295;-79
2023/12/08 10:46:09;;;;;;;25.70;20.02;;;2.60;1.00;;;;;;5147845;27;20234;-82
2023/12/08 10:48:38;;;;;;;29.33;20.98;;;2.60;1.00;;;;;;5150890;27;20229;-80
2023/12/08 10:51:06;;;;;;;25.10;19.85;;;2.60;1.00;;;;;;5150109;27;20237;-78
2023/12/08 10:53:33;;;;;;;27.73;21.85;;;2.70;1.00;;;;;;5151492;27;20803;-77
2023/12/08 10:56:04;;;;;;;26.55;20.35;;;2.70;1.00;;;;;;5148630;27;20236;-79
2023/12/08 10:58:34;;;;;;;26.02;18.50;;;2.90;1.00;;;;;;5150504;27;21093;-77
2023/12/08 11:01:12;;;;;;;27.10;19.50;;;3.00;1.00;;;;;;5147784;27;20295;-78
2023/12/08 11:03:41;;;;;;;23.05;18.13;;;3.00;1.00;;;;;;5148423;27;20320;-77
2023/12/08 11:06:13;;;;;;;22.38;17.80;;;2.90;1.00;;;;;;5146689;27;20230;-77
2023/12/08 11:08:46;;;;;;;24.35;18.35;;;3.00;1.00;;;;;;5144217;27;20319;-77
2023/12/08 11:11:15;;;;;;;24.98;19.00;;;3.00;1.00;;;;;;5146591;27;20301;-76
2023/12/08 11:13:46;;;;;;;26.50;18.23;;;3.00;1.00;;;;;;5149426;27;20363;-76
2023/12/08 11:16:24;;;;;;;21.10;17.83;;;3.00;1.00;;;;;;5146760;27;20230;-78
2023/12/08 11:18:53;;;;;;;20.80;17.75;;;3.10;1.00;;;;;;5149368;27;20237;-77
2023/12/08 11:21:24;;;;;;;23.08;17.88;;;3.00;1.00;;;;;;5145351;27;20241;-76
2023/12/08 11:23:53;;;;;;;23.48;17.20;;;2.90;1.00;;;;;;5140177;27;20238;-77
2023/12/08 11:26:30;;;;;;;21.80;17.25;;;2.70;1.00;;;;;;5141583;27;20371;-76
2023/12/08 11:29:07;;;;;;;21.33;18.40;;;2.70;1.00;;;;;;5134191;27;20242;-78
2023/12/08 11:31:42;;;;;;;24.25;20.02;;;2.60;1.00;;;;;;5153719;27;20232;-78
2023/12/08 11:34:17;;;;;;;26.10;18.40;;;2.70;1.00;;;;;;5149928;27;20233;-79
2023/12/08 11:36:45;;;;;;;24.38;19.63;;;2.70;1.00;;;;;;5147791;27;20284;-76
2023/12/08 11:39:41;;;;;;;24.73;17.85;;;2.50;1.00;;;;;;5151474;27;20333;-77
2023/12/08 11:42:10;;;;;;;21.40;17.00;;;2.60;1.00;;;;;;5137045;27;20313;-77
2023/12/08 11:44:40;;;;;;;19.30;16.40;;;2.60;1.00;;;;;;5147341;27;20312;-79
2023/12/08 11:47:10;;;;;;;22.33;16.38;;;2.60;1.00;;;;;;5146673;27;20241;-79
2023/12/08 11:49:38;;;;;;;21.65;17.55;;;2.60;1.00;;;;;;5144126;27;20712;-80
2023/12/08 11:52:12;;;;;;;23.00;17.55;;;2.60;1.00;;;;;;5149388;27;20237;-79
2023/12/08 11:55:07;;;;;;;22.90;18.33;;;2.60;1.00;;;;;;5153101;27;20231;-82
2023/12/08 11:57:38;;;;;;;23.23;16.63;;;2.70;1.00;;;;;;5150993;27;20324;-80
2023/12/08 12:00:10;;;;;;;21.52;16.70;;;2.70;1.00;;;;;;5139835;27;20237;-80
2023/12/08 12:02:41;;;;;;;19.05;15.63;;;2.70;1.00;;;;;;5149267;27;20629;-79
2023/12/08 12:05:09;;;;;;;21.08;16.40;;;2.70;1.00;;;;;;5114603;27;20632;-79
2023/12/08 12:07:37;;;;;;;19.00;16.45;;;2.80;1.00;;;;;;5151112;27;20233;-79
2023/12/08 12:10:09;;;;;;;22.70;18.40;;;2.70;1.00;;;;;;5145732;27;20727;-78
2023/12/08 12:12:44;;;;;;;21.40;18.20;;;2.70;1.00;;;;;;5135529;27;20229;-79
2023/12/08 12:15:14;;;;;;;25.17;18.00;;;2.80;1.00;;;;;;5140737;27;20234;-80
2023/12/08 12:17:44;;;;;;;22.48;17.42;;;2.80;1.00;;;;;;5140226;27;20237;-82
2023/12/08 12:20:15;;;;;;;20.92;17.08;;;2.90;1.00;;;;;;5118789;27;20275;-80
2023/12/08 12:22:50;;;;;;;21.98;16.73;;;2.80;1.00;;;;;;5150991;27;20240;-79
2023/12/08 12:25:18;;;;;;;21.95;17.60;;;2.80;1.00;;;;;;5144314;27;20317;-81
2023/12/08 12:27:47;;;;;;;20.77;17.20;;;2.80;1.00;;;;;;5152300;27;20233;-81
2023/12/08 12:30:16;;;;;;;21.70;17.98;;;2.90;1.00;;;;;;5138029;27;20234;-81
2023/12/08 12:32:45;;;;;;;24.00;19.90;;;2.80;1.00;;;;;;5147197;27;20272;-79
2023/12/08 12:35:13;;;;;;;21.33;18.00;;;2.90;1.00;;;;;;5153544;27;20229;-82
2023/12/08 12:37:41;;;;;;;23.42;17.27;;;2.80;1.00;;;;;;5150908;27;20226;-79
2023/12/08 12:40:10;;;;;;;22.00;16.95;;;2.70;1.00;;;;;;5148657;27;20239;-82
2023/12/08 12:42:42;;;;;;;26.05;18.77;;;2.70;1.00;;;;;;5155535;27;20260;-80
2023/12/08 12:45:10;;;;;;;21.42;18.30;;;2.70;1.00;;;;;;5146615;27;20372;-81
2023/12/08 12:47:37;;;;;;;26.30;20.67;;;2.90;1.00;;;;;;5146091;27;20314;-79
2023/12/08 12:50:09;;;;;;;24.85;18.45;;;2.90;1.00;;;;;;5151211;27;20237;-80
2023/12/08 12:52:40;;;;;;;23.67;19.20;;;3.00;1.00;;;;;;5152233;27;20720;-81